Plumsteadville, Pennsylvania
Current Conditions -  °F | °C
As of 6:54 AM on Sunday 25 Jan 2015 (Local Time) from KDYL Reporting Station
Overcast Overcast  
Wind Chill: 26°   Ceiling: 4900
Heat Index: 32°   Visibility: 10mi
Dew Point: 27°   Wind: 7mph
Humidity: 82%   Direction: 230°SW
Pressure: 29.69"   Gusts: NA
Location:  40.39°N, 75.15°W
Report Text: KDYL 251154Z AUTO 23006KT 10SM SCT037 BKN049 OVC055 00/M03 A2969 RMK AO2 SLP061 T00001028 10006 21006 53022
Loading
Personal Weather Stations






























Interactive Weather Map New forecast layout! Learn more

10-Day Weather Forecast

Advertisements
Track Severe Weather on mobile